Caribe Alliance — WDC9383 — position and weather

sailwx.info

Track history (hours):
 
Tides and Currents Weather Stations Pressure Air Temp Water Temp Dewpoint Dewpoint Depression Visibility Wind Speed Wind Dir Waves Ship Positions

Caribe Alliance

Owner: Gulf Caribe Maritime, Redondo Beach, CA. More information available from US FCC via Universal Licensing System and Coast Guard Vessel Documentation Center.

Last reported at 2015-Mar-03 18:29 UTC. Time now 2015-Mar-04 04:24 UTC.
Position N 33°55' W 118°27'.

Length 19 m; draft 3.3 m.

Type: Port tender. MMSI: 367101530.

Date/timePositionNaut miles runAvg speedWind from/ knotsBaromVisibWave heightAir tempDewpointWater temp
2015-Mar-03 18:29N 33°55' W 118°27'0 0.1
2015-Mar-03 15:24N 33°55' W 118°27'0 0.3
2015-Mar-03 14:28N 33°55' W 118°27'0 0.0
2015-Mar-03 09:28N 33°55' W 118°27'0 0.0
2015-Mar-03 05:22N 33°55' W 118°27'0 0.0
2015-Mar-02 22:07N 33°55' W 118°27'0 0.0
2015-Mar-02 20:07N 33°55' W 118°27'0 0.0
2015-Mar-02 19:20N 33°55' W 118°27'0 0.4
2015-Mar-02 18:30N 33°55' W 118°27'0 0.2
2015-Mar-02 17:24N 33°55' W 118°27'0 0.0
2015-Mar-02 16:33N 33°55' W 118°27'0 0.0
2015-Mar-02 15:33N 33°55' W 118°27'0 0.0
2015-Mar-02 14:33N 33°55' W 118°27'0 0.0
2015-Mar-02 13:33N 33°55' W 118°27'0 0.0
2015-Mar-02 12:33N 33°55' W 118°27'0 0.0
2015-Mar-02 11:33N 33°55' W 118°27'0 0.1
2015-Mar-02 10:33N 33°55' W 118°27'0 0.0
2015-Mar-02 09:30N 33°55' W 118°27'0 0.0
2015-Mar-01 20:33N 33°55' W 118°27'0 0.0
2015-Mar-01 17:32N 33°55' W 118°27'0 0.3
2015-Mar-01 16:30N 33°55' W 118°27'2 0.9
2015-Mar-01 14:33N 33°53' W 118°26'3 0.2
2015-Feb-28 18:31N 33°51' W 118°24'2 0.1
2015-Feb-28 01:33N 33°52' W 118°25'3 2.7
2015-Feb-28 00:29N 33°54' W 118°27'0 0.0
2015-Feb-27 19:13N 33°54' W 118°27'0 0.3
2015-Feb-27 18:32N 33°54' W 118°27'4 1.9
2015-Feb-27 16:33N 33°51' W 118°24'  
Track history (hours):
 
Tides and Currents Weather Stations Pressure Air Temp Water Temp Dewpoint Dewpoint Depression Visibility Wind Speed Wind Dir Waves Ship Positions

Caribe Alliance

Owner: Gulf Caribe Maritime, Redondo Beach, CA. More information available from US FCC via Universal Licensing System and Coast Guard Vessel Documentation Center.

Last reported at 2015-Mar-03 18:29 UTC. Time now 2015-Mar-04 04:24 UTC.
Position N 33°55' W 118°27'.

Length 19 m; draft 3.3 m.

Type: Port tender. MMSI: 367101530.

Date/timePositionNaut miles runAvg speedWind from/ knotsBaromVisibWave heightAir tempDewpointWater temp
2015-Mar-03 18:29N 33°55' W 118°27'0 0.1
2015-Mar-03 15:24N 33°55' W 118°27'0 0.3
2015-Mar-03 14:28N 33°55' W 118°27'0 0.0
2015-Mar-03 09:28N 33°55' W 118°27'0 0.0
2015-Mar-03 05:22N 33°55' W 118°27'0 0.0
2015-Mar-02 22:07N 33°55' W 118°27'0 0.0
2015-Mar-02 20:07N 33°55' W 118°27'0 0.0
2015-Mar-02 19:20N 33°55' W 118°27'0 0.4
2015-Mar-02 18:30N 33°55' W 118°27'0 0.2
2015-Mar-02 17:24N 33°55' W 118°27'0 0.0
2015-Mar-02 16:33N 33°55' W 118°27'0 0.0
2015-Mar-02 15:33N 33°55' W 118°27'0 0.0
2015-Mar-02 14:33N 33°55' W 118°27'0 0.0
2015-Mar-02 13:33N 33°55' W 118°27'0 0.0
2015-Mar-02 12:33N 33°55' W 118°27'0 0.0
2015-Mar-02 11:33N 33°55' W 118°27'0 0.1
2015-Mar-02 10:33N 33°55' W 118°27'0 0.0
2015-Mar-02 09:30N 33°55' W 118°27'0 0.0
2015-Mar-01 20:33N 33°55' W 118°27'0 0.0
2015-Mar-01 17:32N 33°55' W 118°27'0 0.3
2015-Mar-01 16:30N 33°55' W 118°27'2 0.9
2015-Mar-01 14:33N 33°53' W 118°26'3 0.2
2015-Feb-28 18:31N 33°51' W 118°24'2 0.1
2015-Feb-28 01:33N 33°52' W 118°25'3 2.7
2015-Feb-28 00:29N 33°54' W 118°27'0 0.0
2015-Feb-27 19:13N 33°54' W 118°27'0 0.3
2015-Feb-27 18:32N 33°54' W 118°27'4 1.9
2015-Feb-27 16:33N 33°51' W 118°24'  

Dump ship's entire track history